sensor_id;sensor_type;location;lat;lon;timestamp;P1;durP1;ratioP1;P2;durP2;ratioP2
20727;SDS011;10525;50.154;8.198;2022-08-07T00:01:00;1.75;;;1.40;;
20727;SDS011;10525;50.154;8.198;2022-08-07T00:03:28;1.20;;;1.20;;
20727;SDS011;10525;50.154;8.198;2022-08-07T00:05:55;1.55;;;1.55;;
20727;SDS011;10525;50.154;8.198;2022-08-07T00:08:22;1.20;;;1.20;;
20727;SDS011;10525;50.154;8.198;2022-08-07T00:10:49;1.55;;;1.20;;
20727;SDS011;10525;50.154;8.198;2022-08-07T00:13:16;1.60;;;1.60;;
20727;SDS011;10525;50.154;8.198;2022-08-07T00:15:43;1.35;;;1.35;;
20727;SDS011;10525;50.154;8.198;2022-08-07T00:18:11;1.45;;;1.45;;
20727;SDS011;10525;50.154;8.198;2022-08-07T00:20:39;1.48;;;1.48;;
20727;SDS011;10525;50.154;8.198;2022-08-07T00:23:05;1.40;;;1.40;;
20727;SDS011;10525;50.154;8.198;2022-08-07T00:25:32;1.20;;;1.20;;
20727;SDS011;10525;50.154;8.198;2022-08-07T00:27:59;1.50;;;1.38;;
20727;SDS011;10525;50.154;8.198;2022-08-07T00:30:26;1.30;;;1.30;;
20727;SDS011;10525;50.154;8.198;2022-08-07T00:32:53;1.20;;;1.20;;
20727;SDS011;10525;50.154;8.198;2022-08-07T00:35:21;1.45;;;1.35;;
20727;SDS011;10525;50.154;8.198;2022-08-07T00:37:49;1.33;;;1.33;;
20727;SDS011;10525;50.154;8.198;2022-08-07T00:40:16;1.33;;;1.30;;
20727;SDS011;10525;50.154;8.198;2022-08-07T00:42:43;1.83;;;1.45;;
20727;SDS011;10525;50.154;8.198;2022-08-07T00:45:10;2.60;;;1.40;;
20727;SDS011;10525;50.154;8.198;2022-08-07T00:47:37;1.30;;;1.30;;
20727;SDS011;10525;50.154;8.198;2022-08-07T00:50:04;1.20;;;1.20;;
20727;SDS011;10525;50.154;8.198;2022-08-07T00:52:32;1.80;;;1.35;;
20727;SDS011;10525;50.154;8.198;2022-08-07T00:55:00;1.10;;;1.10;;
20727;SDS011;10525;50.154;8.198;2022-08-07T00:57:27;4.25;;;1.52;;
20727;SDS011;10525;50.154;8.198;2022-08-07T00:59:54;1.40;;;1.40;;
20727;SDS011;10525;50.154;8.198;2022-08-07T01:02:21;1.17;;;1.17;;
20727;SDS011;10525;50.154;8.198;2022-08-07T01:04:49;1.88;;;1.20;;
20727;SDS011;10525;50.154;8.198;2022-08-07T01:07:15;1.20;;;1.20;;
20727;SDS011;10525;50.154;8.198;2022-08-07T01:09:44;8.10;;;1.50;;
20727;SDS011;10525;50.154;8.198;2022-08-07T01:12:12;1.38;;;1.35;;
20727;SDS011;10525;50.154;8.198;2022-08-07T01:14:40;1.30;;;1.30;;
20727;SDS011;10525;50.154;8.198;2022-08-07T01:17:07;1.33;;;1.33;;
20727;SDS011;10525;50.154;8.198;2022-08-07T01:19:34;2.60;;;1.33;;
20727;SDS011;10525;50.154;8.198;2022-08-07T01:22:03;4.00;;;1.38;;
20727;SDS011;10525;50.154;8.198;2022-08-07T01:24:31;6.22;;;1.30;;
20727;SDS011;10525;50.154;8.198;2022-08-07T01:26:58;1.27;;;1.27;;
20727;SDS011;10525;50.154;8.198;2022-08-07T01:29:26;1.77;;;1.30;;
20727;SDS011;10525;50.154;8.198;2022-08-07T01:31:54;3.42;;;1.20;;
20727;SDS011;10525;50.154;8.198;2022-08-07T01:34:21;1.30;;;1.27;;
20727;SDS011;10525;50.154;8.198;2022-08-07T01:36:47;1.40;;;1.40;;
20727;SDS011;10525;50.154;8.198;2022-08-07T01:39:16;1.30;;;1.20;;
20727;SDS011;10525;50.154;8.198;2022-08-07T01:41:42;1.30;;;1.30;;
20727;SDS011;10525;50.154;8.198;2022-08-07T01:44:09;1.42;;;1.42;;
20727;SDS011;10525;50.154;8.198;2022-08-07T01:46:37;2.15;;;1.40;;
20727;SDS011;10525;50.154;8.198;2022-08-07T01:49:05;1.60;;;1.50;;
20727;SDS011;10525;50.154;8.198;2022-08-07T01:51:32;1.98;;;1.50;;
20727;SDS011;10525;50.154;8.198;2022-08-07T01:54:02;1.40;;;1.30;;
20727;SDS011;10525;50.154;8.198;2022-08-07T01:56:35;1.30;;;1.30;;
20727;SDS011;10525;50.154;8.198;2022-08-07T01:59:10;1.30;;;1.30;;
20727;SDS011;10525;50.154;8.198;2022-08-07T02:01:42;1.65;;;1.40;;
20727;SDS011;10525;50.154;8.198;2022-08-07T02:04:15;1.60;;;1.50;;
20727;SDS011;10525;50.154;8.198;2022-08-07T02:06:45;1.42;;;1.42;;
20727;SDS011;10525;50.154;8.198;2022-08-07T02:09:13;1.50;;;1.40;;
20727;SDS011;10525;50.154;8.198;2022-08-07T02:11:44;1.33;;;1.33;;
20727;SDS011;10525;50.154;8.198;2022-08-07T02:14:13;1.52;;;1.48;;
20727;SDS011;10525;50.154;8.198;2022-08-07T02:16:43;1.50;;;1.40;;
20727;SDS011;10525;50.154;8.198;2022-08-07T02:19:12;1.30;;;1.30;;
20727;SDS011;10525;50.154;8.198;2022-08-07T02:21:41;1.35;;;1.25;;
20727;SDS011;10525;50.154;8.198;2022-08-07T02:24:09;1.40;;;1.40;;
20727;SDS011;10525;50.154;8.198;2022-08-07T02:26:39;2.15;;;1.50;;
20727;SDS011;10525;50.154;8.198;2022-08-07T02:29:08;1.63;;;1.50;;
20727;SDS011;10525;50.154;8.198;2022-08-07T02:31:36;2.00;;;1.52;;
20727;SDS011;10525;50.154;8.198;2022-08-07T02:34:04;1.30;;;1.30;;
20727;SDS011;10525;50.154;8.198;2022-08-07T02:36:32;1.13;;;1.13;;
20727;SDS011;10525;50.154;8.198;2022-08-07T02:39:02;1.80;;;1.65;;
20727;SDS011;10525;50.154;8.198;2022-08-07T02:41:31;1.35;;;1.25;;
20727;SDS011;10525;50.154;8.198;2022-08-07T02:43:58;5.13;;;1.40;;
20727;SDS011;10525;50.154;8.198;2022-08-07T02:46:28;1.42;;;1.42;;
20727;SDS011;10525;50.154;8.198;2022-08-07T02:48:56;3.70;;;1.48;;
20727;SDS011;10525;50.154;8.198;2022-08-07T02:51:23;1.33;;;1.33;;
20727;SDS011;10525;50.154;8.198;2022-08-07T02:53:52;1.95;;;1.27;;
20727;SDS011;10525;50.154;8.198;2022-08-07T02:56:21;1.20;;;1.20;;
20727;SDS011;10525;50.154;8.198;2022-08-07T02:58:50;1.40;;;1.40;;
20727;SDS011;10525;50.154;8.198;2022-08-07T03:01:18;1.55;;;1.38;;
20727;SDS011;10525;50.154;8.198;2022-08-07T03:03:48;1.65;;;1.20;;
20727;SDS011;10525;50.154;8.198;2022-08-07T03:06:15;1.33;;;1.20;;
20727;SDS011;10525;50.154;8.198;2022-08-07T03:08:44;1.35;;;1.30;;
20727;SDS011;10525;50.154;8.198;2022-08-07T03:11:11;1.27;;;1.27;;
20727;SDS011;10525;50.154;8.198;2022-08-07T03:13:38;1.35;;;1.35;;
20727;SDS011;10525;50.154;8.198;2022-08-07T03:16:06;1.30;;;1.30;;
20727;SDS011;10525;50.154;8.198;2022-08-07T03:18:33;3.58;;;1.35;;
20727;SDS011;10525;50.154;8.198;2022-08-07T03:21:01;1.10;;;1.10;;
20727;SDS011;10525;50.154;8.198;2022-08-07T03:23:29;1.50;;;1.50;;
20727;SDS011;10525;50.154;8.198;2022-08-07T03:25:57;1.33;;;1.33;;
20727;SDS011;10525;50.154;8.198;2022-08-07T03:28:27;1.45;;;1.45;;
20727;SDS011;10525;50.154;8.198;2022-08-07T03:30:55;1.85;;;1.60;;
20727;SDS011;10525;50.154;8.198;2022-08-07T03:33:37;1.90;;;1.80;;
20727;SDS011;10525;50.154;8.198;2022-08-07T03:36:06;1.70;;;1.45;;
20727;SDS011;10525;50.154;8.198;2022-08-07T03:38:34;1.40;;;1.40;;
20727;SDS011;10525;50.154;8.198;2022-08-07T03:41:02;3.70;;;1.65;;
20727;SDS011;10525;50.154;8.198;2022-08-07T03:43:29;1.20;;;1.20;;
20727;SDS011;10525;50.154;8.198;2022-08-07T03:45:57;1.30;;;1.30;;
20727;SDS011;10525;50.154;8.198;2022-08-07T03:48:24;1.40;;;1.30;;
20727;SDS011;10525;50.154;8.198;2022-08-07T03:50:53;1.65;;;1.65;;
20727;SDS011;10525;50.154;8.198;2022-08-07T03:53:22;2.28;;;1.50;;
20727;SDS011;10525;50.154;8.198;2022-08-07T03:55:49;1.60;;;1.60;;
20727;SDS011;10525;50.154;8.198;2022-08-07T03:58:17;1.40;;;1.40;;
20727;SDS011;10525;50.154;8.198;2022-08-07T04:00:45;1.50;;;1.50;;
20727;SDS011;10525;50.154;8.198;2022-08-07T04:03:14;2.95;;;1.58;;
20727;SDS011;10525;50.154;8.198;2022-08-07T04:05:41;2.00;;;1.55;;
20727;SDS011;10525;50.154;8.198;2022-08-07T04:08:08;1.63;;;1.52;;
20727;SDS011;10525;50.154;8.198;2022-08-07T04:10:37;1.30;;;1.30;;
20727;SDS011;10525;50.154;8.198;2022-08-07T04:13:05;1.58;;;1.58;;
20727;SDS011;10525;50.154;8.198;2022-08-07T04:15:32;1.70;;;1.67;;
20727;SDS011;10525;50.154;8.198;2022-08-07T04:17:59;1.63;;;1.63;;
20727;SDS011;10525;50.154;8.198;2022-08-07T04:20:27;1.40;;;1.40;;
20727;SDS011;10525;50.154;8.198;2022-08-07T04:22:54;1.25;;;1.25;;
20727;SDS011;10525;50.154;8.198;2022-08-07T04:25:21;1.55;;;1.55;;
20727;SDS011;10525;50.154;8.198;2022-08-07T04:27:49;1.63;;;1.52;;
20727;SDS011;10525;50.154;8.198;2022-08-07T04:30:17;1.58;;;1.23;;
20727;SDS011;10525;50.154;8.198;2022-08-07T04:32:43;1.80;;;1.80;;
20727;SDS011;10525;50.154;8.198;2022-08-07T04:35:11;1.92;;;1.83;;
20727;SDS011;10525;50.154;8.198;2022-08-07T04:37:38;1.30;;;1.30;;
20727;SDS011;10525;50.154;8.198;2022-08-07T04:40:05;1.60;;;1.48;;
20727;SDS011;10525;50.154;8.198;2022-08-07T04:42:32;1.77;;;1.77;;
20727;SDS011;10525;50.154;8.198;2022-08-07T04:45:01;1.60;;;1.50;;
20727;SDS011;10525;50.154;8.198;2022-08-07T04:47:32;1.75;;;1.65;;
20727;SDS011;10525;50.154;8.198;2022-08-07T04:50:05;1.80;;;1.80;;
20727;SDS011;10525;50.154;8.198;2022-08-07T04:52:38;1.40;;;1.40;;
20727;SDS011;10525;50.154;8.198;2022-08-07T04:55:14;1.25;;;1.25;;
20727;SDS011;10525;50.154;8.198;2022-08-07T04:57:50;1.27;;;1.20;;
20727;SDS011;10525;50.154;8.198;2022-08-07T05:00:24;1.30;;;1.30;;
20727;SDS011;10525;50.154;8.198;2022-08-07T05:03:01;1.42;;;1.42;;
20727;SDS011;10525;50.154;8.198;2022-08-07T05:05:36;1.25;;;1.20;;
20727;SDS011;10525;50.154;8.198;2022-08-07T05:08:11;1.25;;;1.25;;
20727;SDS011;10525;50.154;8.198;2022-08-07T05:10:44;1.30;;;1.30;;
20727;SDS011;10525;50.154;8.198;2022-08-07T05:13:15;1.20;;;1.20;;
20727;SDS011;10525;50.154;8.198;2022-08-07T05:15:48;1.35;;;1.35;;
20727;SDS011;10525;50.154;8.198;2022-08-07T05:18:18;1.40;;;1.40;;
20727;SDS011;10525;50.154;8.198;2022-08-07T05:20:49;1.70;;;1.63;;
20727;SDS011;10525;50.154;8.198;2022-08-07T05:23:19;1.33;;;1.33;;
20727;SDS011;10525;50.154;8.198;2022-08-07T05:25:50;1.50;;;1.50;;
20727;SDS011;10525;50.154;8.198;2022-08-07T05:28:18;1.52;;;1.52;;
20727;SDS011;10525;50.154;8.198;2022-08-07T05:30:47;1.60;;;1.60;;
20727;SDS011;10525;50.154;8.198;2022-08-07T05:33:15;2.75;;;1.58;;
20727;SDS011;10525;50.154;8.198;2022-08-07T05:35:42;1.50;;;1.50;;
20727;SDS011;10525;50.154;8.198;2022-08-07T05:38:10;1.70;;;1.65;;
20727;SDS011;10525;50.154;8.198;2022-08-07T05:40:37;4.75;;;2.20;;
20727;SDS011;10525;50.154;8.198;2022-08-07T05:43:05;1.85;;;1.45;;
20727;SDS011;10525;50.154;8.198;2022-08-07T05:45:32;2.60;;;1.40;;
20727;SDS011;10525;50.154;8.198;2022-08-07T05:48:00;1.50;;;1.40;;
20727;SDS011;10525;50.154;8.198;2022-08-07T05:50:28;1.38;;;1.38;;
20727;SDS011;10525;50.154;8.198;2022-08-07T05:52:57;2.53;;;1.52;;
20727;SDS011;10525;50.154;8.198;2022-08-07T05:55:24;3.53;;;1.40;;
20727;SDS011;10525;50.154;8.198;2022-08-07T05:57:51;1.55;;;1.55;;
20727;SDS011;10525;50.154;8.198;2022-08-07T06:00:20;1.95;;;1.40;;
20727;SDS011;10525;50.154;8.198;2022-08-07T06:02:48;1.33;;;1.33;;
20727;SDS011;10525;50.154;8.198;2022-08-07T06:05:19;1.45;;;1.45;;
20727;SDS011;10525;50.154;8.198;2022-08-07T06:07:46;2.35;;;1.50;;
20727;SDS011;10525;50.154;8.198;2022-08-07T06:10:14;1.50;;;1.50;;
20727;SDS011;10525;50.154;8.198;2022-08-07T06:12:41;1.60;;;1.50;;
20727;SDS011;10525;50.154;8.198;2022-08-07T06:15:08;1.65;;;1.65;;
20727;SDS011;10525;50.154;8.198;2022-08-07T06:17:39;1.92;;;1.67;;
20727;SDS011;10525;50.154;8.198;2022-08-07T06:20:07;1.30;;;1.30;;
20727;SDS011;10525;50.154;8.198;2022-08-07T06:22:36;1.40;;;1.40;;
20727;SDS011;10525;50.154;8.198;2022-08-07T06:25:05;1.75;;;1.42;;
20727;SDS011;10525;50.154;8.198;2022-08-07T06:27:32;2.28;;;1.65;;
20727;SDS011;10525;50.154;8.198;2022-08-07T06:29:59;1.13;;;1.13;;
20727;SDS011;10525;50.154;8.198;2022-08-07T06:32:26;1.58;;;1.30;;
20727;SDS011;10525;50.154;8.198;2022-08-07T06:34:53;1.40;;;1.30;;
20727;SDS011;10525;50.154;8.198;2022-08-07T06:37:19;1.30;;;1.30;;
20727;SDS011;10525;50.154;8.198;2022-08-07T06:39:47;1.08;;;1.08;;
20727;SDS011;10525;50.154;8.198;2022-08-07T06:42:15;1.95;;;1.30;;
20727;SDS011;10525;50.154;8.198;2022-08-07T06:44:44;1.33;;;1.23;;
20727;SDS011;10525;50.154;8.198;2022-08-07T06:47:12;1.13;;;1.10;;
20727;SDS011;10525;50.154;8.198;2022-08-07T06:49:39;1.35;;;1.10;;
20727;SDS011;10525;50.154;8.198;2022-08-07T06:52:07;1.83;;;1.20;;
20727;SDS011;10525;50.154;8.198;2022-08-07T06:54:35;1.27;;;1.23;;
20727;SDS011;10525;50.154;8.198;2022-08-07T06:57:04;1.13;;;1.10;;
20727;SDS011;10525;50.154;8.198;2022-08-07T06:59:34;1.02;;;1.02;;
20727;SDS011;10525;50.154;8.198;2022-08-07T07:02:05;1.15;;;1.05;;
20727;SDS011;10525;50.154;8.198;2022-08-07T07:04:34;1.00;;;1.00;;
20727;SDS011;10525;50.154;8.198;2022-08-07T07:07:03;1.10;;;1.10;;
20727;SDS011;10525;50.154;8.198;2022-08-07T07:09:31;0.90;;;0.90;;
20727;SDS011;10525;50.154;8.198;2022-08-07T07:14:57;0.80;;;0.80;;
20727;SDS011;10525;50.154;8.198;2022-08-07T07:17:31;1.15;;;1.00;;
20727;SDS011;10525;50.154;8.198;2022-08-07T07:20:02;0.85;;;0.85;;
20727;SDS011;10525;50.154;8.198;2022-08-07T07:22:32;0.80;;;0.80;;
20727;SDS011;10525;50.154;8.198;2022-08-07T07:24:59;1.10;;;1.00;;
20727;SDS011;10525;50.154;8.198;2022-08-07T07:27:29;0.80;;;0.80;;
20727;SDS011;10525;50.154;8.198;2022-08-07T07:30:01;0.80;;;0.80;;
20727;SDS011;10525;50.154;8.198;2022-08-07T07:32:29;0.88;;;0.88;;
20727;SDS011;10525;50.154;8.198;2022-08-07T07:34:59;1.77;;;0.90;;
20727;SDS011;10525;50.154;8.198;2022-08-07T07:37:28;1.90;;;0.85;;
20727;SDS011;10525;50.154;8.198;2022-08-07T07:39:57;1.08;;;0.98;;
20727;SDS011;10525;50.154;8.198;2022-08-07T07:42:28;0.80;;;0.80;;
20727;SDS011;10525;50.154;8.198;2022-08-07T07:44:56;3.63;;;0.80;;
20727;SDS011;10525;50.154;8.198;2022-08-07T07:47:29;0.85;;;0.85;;
20727;SDS011;10525;50.154;8.198;2022-08-07T07:49:56;0.70;;;0.70;;
20727;SDS011;10525;50.154;8.198;2022-08-07T07:52:25;0.88;;;0.88;;
20727;SDS011;10525;50.154;8.198;2022-08-07T07:54:53;1.75;;;0.70;;
20727;SDS011;10525;50.154;8.198;2022-08-07T07:57:21;1.77;;;0.90;;
20727;SDS011;10525;50.154;8.198;2022-08-07T07:59:51;0.70;;;0.70;;
20727;SDS011;10525;50.154;8.198;2022-08-07T08:02:20;1.13;;;1.13;;
20727;SDS011;10525;50.154;8.198;2022-08-07T08:04:48;1.85;;;0.90;;
20727;SDS011;10525;50.154;8.198;2022-08-07T08:07:16;0.77;;;0.77;;
20727;SDS011;10525;50.154;8.198;2022-08-07T08:09:42;0.80;;;0.80;;
20727;SDS011;10525;50.154;8.198;2022-08-07T08:12:11;0.70;;;0.70;;
20727;SDS011;10525;50.154;8.198;2022-08-07T08:14:38;0.70;;;0.70;;
20727;SDS011;10525;50.154;8.198;2022-08-07T08:17:08;0.73;;;0.73;;
20727;SDS011;10525;50.154;8.198;2022-08-07T08:19:37;3.65;;;0.90;;
20727;SDS011;10525;50.154;8.198;2022-08-07T08:22:05;0.60;;;0.60;;
20727;SDS011;10525;50.154;8.198;2022-08-07T08:24:52;0.95;;;0.95;;
20727;SDS011;10525;50.154;8.198;2022-08-07T08:27:39;0.93;;;0.90;;
20727;SDS011;10525;50.154;8.198;2022-08-07T08:30:08;1.65;;;0.75;;
20727;SDS011;10525;50.154;8.198;2022-08-07T08:32:39;1.58;;;0.80;;
20727;SDS011;10525;50.154;8.198;2022-08-07T08:35:08;1.17;;;0.75;;
20727;SDS011;10525;50.154;8.198;2022-08-07T08:37:38;2.40;;;0.80;;
20727;SDS011;10525;50.154;8.198;2022-08-07T08:40:09;0.90;;;0.90;;
20727;SDS011;10525;50.154;8.198;2022-08-07T08:42:42;1.00;;;1.00;;
20727;SDS011;10525;50.154;8.198;2022-08-07T08:45:17;0.70;;;0.70;;
20727;SDS011;10525;50.154;8.198;2022-08-07T08:47:51;0.90;;;0.90;;
20727;SDS011;10525;50.154;8.198;2022-08-07T08:50:27;1.50;;;1.42;;
20727;SDS011;10525;50.154;8.198;2022-08-07T08:53:01;0.80;;;0.80;;
20727;SDS011;10525;50.154;8.198;2022-08-07T08:55:32;2.58;;;0.80;;
20727;SDS011;10525;50.154;8.198;2022-08-07T08:58:05;0.80;;;0.70;;
20727;SDS011;10525;50.154;8.198;2022-08-07T09:00:38;2.80;;;1.23;;
20727;SDS011;10525;50.154;8.198;2022-08-07T09:03:11;0.70;;;0.70;;
20727;SDS011;10525;50.154;8.198;2022-08-07T09:05:49;0.82;;;0.82;;
20727;SDS011;10525;50.154;8.198;2022-08-07T09:08:35;0.70;;;0.70;;
20727;SDS011;10525;50.154;8.198;2022-08-07T09:11:10;0.70;;;0.70;;
20727;SDS011;10525;50.154;8.198;2022-08-07T09:13:42;0.70;;;0.70;;
20727;SDS011;10525;50.154;8.198;2022-08-07T09:16:21;0.80;;;0.80;;
20727;SDS011;10525;50.154;8.198;2022-08-07T09:19:11;0.88;;;0.82;;
20727;SDS011;10525;50.154;8.198;2022-08-07T09:21:52;0.70;;;0.70;;
20727;SDS011;10525;50.154;8.198;2022-08-07T09:24:30;1.40;;;1.27;;
20727;SDS011;10525;50.154;8.198;2022-08-07T09:27:07;0.80;;;0.80;;
20727;SDS011;10525;50.154;8.198;2022-08-07T09:29:44;0.95;;;0.95;;
20727;SDS011;10525;50.154;8.198;2022-08-07T09:32:24;0.73;;;0.73;;
20727;SDS011;10525;50.154;8.198;2022-08-07T09:35:10;1.40;;;1.00;;
20727;SDS011;10525;50.154;8.198;2022-08-07T09:37:43;0.90;;;0.80;;
20727;SDS011;10525;50.154;8.198;2022-08-07T09:40:19;1.00;;;0.80;;
20727;SDS011;10525;50.154;8.198;2022-08-07T09:42:53;0.80;;;0.80;;
20727;SDS011;10525;50.154;8.198;2022-08-07T09:45:30;0.70;;;0.70;;
20727;SDS011;10525;50.154;8.198;2022-08-07T09:48:26;0.77;;;0.77;;
20727;SDS011;10525;50.154;8.198;2022-08-07T09:51:09;0.90;;;0.90;;
20727;SDS011;10525;50.154;8.198;2022-08-07T09:53:46;0.90;;;0.90;;
20727;SDS011;10525;50.154;8.198;2022-08-07T09:59:24;1.38;;;0.93;;
20727;SDS011;10525;50.154;8.198;2022-08-07T10:02:12;0.70;;;0.70;;
20727;SDS011;10525;50.154;8.198;2022-08-07T10:05:02;1.65;;;0.82;;
20727;SDS011;10525;50.154;8.198;2022-08-07T10:07:47;1.02;;;0.93;;
20727;SDS011;10525;50.154;8.198;2022-08-07T10:10:32;1.77;;;0.80;;
20727;SDS011;10525;50.154;8.198;2022-08-07T10:13:16;0.80;;;0.80;;
20727;SDS011;10525;50.154;8.198;2022-08-07T10:15:53;1.65;;;0.98;;
20727;SDS011;10525;50.154;8.198;2022-08-07T10:18:34;1.50;;;1.00;;
20727;SDS011;10525;50.154;8.198;2022-08-07T10:21:22;1.08;;;0.95;;
20727;SDS011;10525;50.154;8.198;2022-08-07T10:24:03;1.08;;;1.08;;
20727;SDS011;10525;50.154;8.198;2022-08-07T10:26:54;1.48;;;0.90;;
20727;SDS011;10525;50.154;8.198;2022-08-07T10:29:40;1.00;;;1.00;;
20727;SDS011;10525;50.154;8.198;2022-08-07T10:32:25;0.80;;;0.80;;
20727;SDS011;10525;50.154;8.198;2022-08-07T10:35:07;1.25;;;0.80;;
20727;SDS011;10525;50.154;8.198;2022-08-07T10:37:42;1.25;;;0.88;;
20727;SDS011;10525;50.154;8.198;2022-08-07T10:40:21;1.00;;;0.90;;
20727;SDS011;10525;50.154;8.198;2022-08-07T10:42:56;0.82;;;0.82;;
20727;SDS011;10525;50.154;8.198;2022-08-07T10:45:26;0.90;;;0.70;;
20727;SDS011;10525;50.154;8.198;2022-08-07T10:48:02;0.80;;;0.80;;
20727;SDS011;10525;50.154;8.198;2022-08-07T10:50:41;1.13;;;1.10;;
20727;SDS011;10525;50.154;8.198;2022-08-07T10:53:15;0.80;;;0.80;;
20727;SDS011;10525;50.154;8.198;2022-08-07T10:55:51;0.90;;;0.90;;
20727;SDS011;10525;50.154;8.198;2022-08-07T10:58:30;0.82;;;0.80;;
20727;SDS011;10525;50.154;8.198;2022-08-07T11:01:24;0.90;;;0.88;;
20727;SDS011;10525;50.154;8.198;2022-08-07T11:04:02;1.00;;;1.00;;
20727;SDS011;10525;50.154;8.198;2022-08-07T11:06:34;0.88;;;0.88;;
20727;SDS011;10525;50.154;8.198;2022-08-07T11:09:06;1.20;;;0.93;;
20727;SDS011;10525;50.154;8.198;2022-08-07T11:11:42;0.95;;;0.95;;
20727;SDS011;10525;50.154;8.198;2022-08-07T11:14:14;1.70;;;1.10;;
20727;SDS011;10525;50.154;8.198;2022-08-07T11:16:51;0.70;;;0.70;;
20727;SDS011;10525;50.154;8.198;2022-08-07T11:19:23;0.88;;;0.88;;
20727;SDS011;10525;50.154;8.198;2022-08-07T11:21:59;0.90;;;0.90;;
20727;SDS011;10525;50.154;8.198;2022-08-07T11:24:33;0.77;;;0.77;;
20727;SDS011;10525;50.154;8.198;2022-08-07T11:27:07;0.77;;;0.75;;
20727;SDS011;10525;50.154;8.198;2022-08-07T11:29:39;0.70;;;0.70;;
20727;SDS011;10525;50.154;8.198;2022-08-07T11:32:09;2.30;;;0.90;;
20727;SDS011;10525;50.154;8.198;2022-08-07T11:34:42;0.93;;;0.90;;
20727;SDS011;10525;50.154;8.198;2022-08-07T11:37:15;0.70;;;0.70;;
20727;SDS011;10525;50.154;8.198;2022-08-07T11:39:54;3.17;;;0.90;;
20727;SDS011;10525;50.154;8.198;2022-08-07T11:42:39;0.80;;;0.80;;
20727;SDS011;10525;50.154;8.198;2022-08-07T11:45:17;0.77;;;0.77;;
20727;SDS011;10525;50.154;8.198;2022-08-07T11:48:11;0.70;;;0.70;;
20727;SDS011;10525;50.154;8.198;2022-08-07T11:50:48;3.13;;;1.45;;
20727;SDS011;10525;50.154;8.198;2022-08-07T11:53:30;1.13;;;1.13;;
20727;SDS011;10525;50.154;8.198;2022-08-07T11:56:09;0.95;;;0.95;;
20727;SDS011;10525;50.154;8.198;2022-08-07T11:58:52;0.80;;;0.80;;
20727;SDS011;10525;50.154;8.198;2022-08-07T12:01:35;0.90;;;0.90;;
20727;SDS011;10525;50.154;8.198;2022-08-07T12:04:15;0.80;;;0.80;;
20727;SDS011;10525;50.154;8.198;2022-08-07T12:07:00;0.82;;;0.82;;
20727;SDS011;10525;50.154;8.198;2022-08-07T12:09:35;2.72;;;0.80;;
20727;SDS011;10525;50.154;8.198;2022-08-07T12:12:06;1.48;;;0.90;;
20727;SDS011;10525;50.154;8.198;2022-08-07T12:14:40;0.82;;;0.82;;
20727;SDS011;10525;50.154;8.198;2022-08-07T12:17:11;0.90;;;0.90;;
20727;SDS011;10525;50.154;8.198;2022-08-07T12:19:42;0.95;;;0.90;;
20727;SDS011;10525;50.154;8.198;2022-08-07T12:22:16;0.90;;;0.90;;
20727;SDS011;10525;50.154;8.198;2022-08-07T12:24:50;0.82;;;0.82;;
20727;SDS011;10525;50.154;8.198;2022-08-07T12:27:41;0.73;;;0.73;;
20727;SDS011;10525;50.154;8.198;2022-08-07T12:30:14;1.00;;;1.00;;
20727;SDS011;10525;50.154;8.198;2022-08-07T12:32:44;0.90;;;0.90;;
20727;SDS011;10525;50.154;8.198;2022-08-07T12:35:17;0.90;;;0.90;;
20727;SDS011;10525;50.154;8.198;2022-08-07T12:37:46;0.80;;;0.80;;
20727;SDS011;10525;50.154;8.198;2022-08-07T12:40:15;1.77;;;0.90;;
20727;SDS011;10525;50.154;8.198;2022-08-07T12:42:44;0.93;;;0.93;;
20727;SDS011;10525;50.154;8.198;2022-08-07T12:45:18;0.63;;;0.63;;
20727;SDS011;10525;50.154;8.198;2022-08-07T12:47:50;0.90;;;0.90;;
20727;SDS011;10525;50.154;8.198;2022-08-07T12:50:24;0.90;;;0.90;;
20727;SDS011;10525;50.154;8.198;2022-08-07T12:53:10;0.88;;;0.88;;
20727;SDS011;10525;50.154;8.198;2022-08-07T12:55:45;0.98;;;0.98;;
20727;SDS011;10525;50.154;8.198;2022-08-07T12:58:15;1.75;;;0.90;;
20727;SDS011;10525;50.154;8.198;2022-08-07T13:00:49;1.95;;;0.90;;
20727;SDS011;10525;50.154;8.198;2022-08-07T13:03:30;0.80;;;0.80;;
20727;SDS011;10525;50.154;8.198;2022-08-07T13:06:18;0.80;;;0.80;;
20727;SDS011;10525;50.154;8.198;2022-08-07T13:08:55;0.80;;;0.80;;
20727;SDS011;10525;50.154;8.198;2022-08-07T13:11:38;0.80;;;0.80;;
20727;SDS011;10525;50.154;8.198;2022-08-07T13:14:15;0.90;;;0.90;;
20727;SDS011;10525;50.154;8.198;2022-08-07T13:16:51;0.90;;;0.90;;
20727;SDS011;10525;50.154;8.198;2022-08-07T13:19:26;0.88;;;0.70;;
20727;SDS011;10525;50.154;8.198;2022-08-07T13:21:59;0.90;;;0.90;;
20727;SDS011;10525;50.154;8.198;2022-08-07T13:24:31;1.05;;;0.90;;
20727;SDS011;10525;50.154;8.198;2022-08-07T13:27:07;0.80;;;0.80;;
20727;SDS011;10525;50.154;8.198;2022-08-07T13:29:40;1.25;;;0.90;;
20727;SDS011;10525;50.154;8.198;2022-08-07T13:32:15;0.85;;;0.85;;
20727;SDS011;10525;50.154;8.198;2022-08-07T13:34:50;0.90;;;0.90;;
20727;SDS011;10525;50.154;8.198;2022-08-07T13:37:24;0.90;;;0.90;;
20727;SDS011;10525;50.154;8.198;2022-08-07T13:40:01;1.23;;;0.93;;
20727;SDS011;10525;50.154;8.198;2022-08-07T13:42:34;2.20;;;0.95;;
20727;SDS011;10525;50.154;8.198;2022-08-07T13:45:02;0.80;;;0.80;;
20727;SDS011;10525;50.154;8.198;2022-08-07T13:47:32;1.02;;;1.02;;
20727;SDS011;10525;50.154;8.198;2022-08-07T13:50:01;1.10;;;1.10;;
20727;SDS011;10525;50.154;8.198;2022-08-07T13:52:29;1.05;;;1.05;;
20727;SDS011;10525;50.154;8.198;2022-08-07T13:54:57;0.90;;;0.90;;
20727;SDS011;10525;50.154;8.198;2022-08-07T13:57:30;0.90;;;0.90;;
20727;SDS011;10525;50.154;8.198;2022-08-07T13:59:58;1.13;;;1.00;;
20727;SDS011;10525;50.154;8.198;2022-08-07T14:02:28;1.67;;;0.80;;
20727;SDS011;10525;50.154;8.198;2022-08-07T14:05:01;0.90;;;0.90;;
20727;SDS011;10525;50.154;8.198;2022-08-07T14:07:31;1.27;;;1.08;;
20727;SDS011;10525;50.154;8.198;2022-08-07T14:10:03;0.73;;;0.73;;
20727;SDS011;10525;50.154;8.198;2022-08-07T14:12:32;0.90;;;0.90;;
20727;SDS011;10525;50.154;8.198;2022-08-07T14:15:05;0.80;;;0.80;;
20727;SDS011;10525;50.154;8.198;2022-08-07T14:17:42;0.90;;;0.90;;
20727;SDS011;10525;50.154;8.198;2022-08-07T14:20:15;0.90;;;0.90;;
20727;SDS011;10525;50.154;8.198;2022-08-07T14:22:45;0.70;;;0.70;;
20727;SDS011;10525;50.154;8.198;2022-08-07T14:25:16;0.55;;;0.55;;
20727;SDS011;10525;50.154;8.198;2022-08-07T14:27:44;0.95;;;0.80;;
20727;SDS011;10525;50.154;8.198;2022-08-07T14:30:12;1.30;;;0.88;;
20727;SDS011;10525;50.154;8.198;2022-08-07T14:32:40;0.98;;;0.98;;
20727;SDS011;10525;50.154;8.198;2022-08-07T14:35:13;0.90;;;0.90;;
20727;SDS011;10525;50.154;8.198;2022-08-07T14:37:42;0.90;;;0.80;;
20727;SDS011;10525;50.154;8.198;2022-08-07T14:40:14;0.70;;;0.70;;
20727;SDS011;10525;50.154;8.198;2022-08-07T14:42:42;0.70;;;0.70;;
20727;SDS011;10525;50.154;8.198;2022-08-07T14:45:10;1.98;;;0.77;;
20727;SDS011;10525;50.154;8.198;2022-08-07T14:47:39;1.23;;;0.80;;
20727;SDS011;10525;50.154;8.198;2022-08-07T14:50:11;2.15;;;0.77;;
20727;SDS011;10525;50.154;8.198;2022-08-07T14:52:43;0.80;;;0.80;;
20727;SDS011;10525;50.154;8.198;2022-08-07T14:55:11;0.93;;;0.93;;
20727;SDS011;10525;50.154;8.198;2022-08-07T14:57:39;1.00;;;0.70;;
20727;SDS011;10525;50.154;8.198;2022-08-07T15:00:08;1.10;;;1.10;;
20727;SDS011;10525;50.154;8.198;2022-08-07T15:02:36;0.98;;;0.98;;
20727;SDS011;10525;50.154;8.198;2022-08-07T15:05:04;1.88;;;0.90;;
20727;SDS011;10525;50.154;8.198;2022-08-07T15:07:34;1.00;;;1.00;;
20727;SDS011;10525;50.154;8.198;2022-08-07T15:10:01;0.90;;;0.90;;
20727;SDS011;10525;50.154;8.198;2022-08-07T15:12:30;6.20;;;0.93;;
20727;SDS011;10525;50.154;8.198;2022-08-07T15:15:02;0.70;;;0.70;;
20727;SDS011;10525;50.154;8.198;2022-08-07T15:17:32;1.20;;;0.88;;
20727;SDS011;10525;50.154;8.198;2022-08-07T15:20:04;0.73;;;0.73;;